sensor_id;sensor_type;location;lat;lon;timestamp;temperature;humidity
40828;DHT22;26549;50.918;5.338;2024-03-29T00:00:43;10.80;99.90
40828;DHT22;26549;50.918;5.338;2024-03-29T00:03:12;10.80;99.90
40828;DHT22;26549;50.918;5.338;2024-03-29T00:05:38;10.70;99.90
40828;DHT22;26549;50.918;5.338;2024-03-29T00:08:04;10.60;99.90
40828;DHT22;26549;50.918;5.338;2024-03-29T00:10:31;10.60;99.90
40828;DHT22;26549;50.918;5.338;2024-03-29T00:12:57;10.70;99.90
40828;DHT22;26549;50.918;5.338;2024-03-29T00:15:23;10.70;99.90
40828;DHT22;26549;50.918;5.338;2024-03-29T00:17:52;10.60;99.90
40828;DHT22;26549;50.918;5.338;2024-03-29T00:20:17;10.70;99.90
40828;DHT22;26549;50.918;5.338;2024-03-29T00:22:46;10.70;99.90
40828;DHT22;26549;50.918;5.338;2024-03-29T00:25:12;10.70;99.90
40828;DHT22;26549;50.918;5.338;2024-03-29T00:27:41;10.70;99.90
40828;DHT22;26549;50.918;5.338;2024-03-29T00:30:09;10.70;99.90
40828;DHT22;26549;50.918;5.338;2024-03-29T00:32:37;10.70;99.90
40828;DHT22;26549;50.918;5.338;2024-03-29T00:35:03;10.60;99.90
40828;DHT22;26549;50.918;5.338;2024-03-29T00:37:28;10.70;99.90
40828;DHT22;26549;50.918;5.338;2024-03-29T00:39:54;10.70;99.90
40828;DHT22;26549;50.918;5.338;2024-03-29T00:42:20;10.70;99.90
40828;DHT22;26549;50.918;5.338;2024-03-29T00:44:46;10.70;99.90
40828;DHT22;26549;50.918;5.338;2024-03-29T00:47:18;10.80;99.90
40828;DHT22;26549;50.918;5.338;2024-03-29T00:49:44;10.80;99.90
40828;DHT22;26549;50.918;5.338;2024-03-29T00:52:10;10.80;99.90
40828;DHT22;26549;50.918;5.338;2024-03-29T00:54:35;10.70;99.90
40828;DHT22;26549;50.918;5.338;2024-03-29T00:57:01;10.90;99.90
40828;DHT22;26549;50.918;5.338;2024-03-29T00:59:27;10.80;99.90
40828;DHT22;26549;50.918;5.338;2024-03-29T01:01:53;10.90;99.90
40828;DHT22;26549;50.918;5.338;2024-03-29T01:04:19;10.90;99.90
40828;DHT22;26549;50.918;5.338;2024-03-29T01:06:44;10.90;99.90
40828;DHT22;26549;50.918;5.338;2024-03-29T01:09:11;11.00;99.90
40828;DHT22;26549;50.918;5.338;2024-03-29T01:11:37;11.00;99.90
40828;DHT22;26549;50.918;5.338;2024-03-29T01:14:04;11.00;99.90
40828;DHT22;26549;50.918;5.338;2024-03-29T01:16:30;10.90;99.90
40828;DHT22;26549;50.918;5.338;2024-03-29T01:18:57;11.00;99.90
40828;DHT22;26549;50.918;5.338;2024-03-29T01:21:26;11.10;99.90
40828;DHT22;26549;50.918;5.338;2024-03-29T01:23:52;11.10;99.90
40828;DHT22;26549;50.918;5.338;2024-03-29T01:26:18;11.20;99.90
40828;DHT22;26549;50.918;5.338;2024-03-29T01:28:45;11.20;99.90
40828;DHT22;26549;50.918;5.338;2024-03-29T01:31:11;11.20;99.90
40828;DHT22;26549;50.918;5.338;2024-03-29T01:33:38;11.30;99.90
40828;DHT22;26549;50.918;5.338;2024-03-29T01:36:05;11.10;99.90
40828;DHT22;26549;50.918;5.338;2024-03-29T01:38:31;11.10;99.90
40828;DHT22;26549;50.918;5.338;2024-03-29T01:40:57;11.10;99.90
40828;DHT22;26549;50.918;5.338;2024-03-29T01:43:23;11.30;99.90
40828;DHT22;26549;50.918;5.338;2024-03-29T01:45:51;11.40;99.90
40828;DHT22;26549;50.918;5.338;2024-03-29T01:48:19;11.40;99.90
40828;DHT22;26549;50.918;5.338;2024-03-29T01:50:47;11.50;99.90
40828;DHT22;26549;50.918;5.338;2024-03-29T01:53:13;11.50;99.90
40828;DHT22;26549;50.918;5.338;2024-03-29T01:55:40;11.50;99.90
40828;DHT22;26549;50.918;5.338;2024-03-29T01:58:09;11.50;99.90
40828;DHT22;26549;50.918;5.338;2024-03-29T02:00:42;11.60;99.90
40828;DHT22;26549;50.918;5.338;2024-03-29T02:03:09;11.70;99.90
40828;DHT22;26549;50.918;5.338;2024-03-29T02:05:40;11.60;99.90
40828;DHT22;26549;50.918;5.338;2024-03-29T02:08:07;11.60;99.90
40828;DHT22;26549;50.918;5.338;2024-03-29T02:10:34;11.60;99.90
40828;DHT22;26549;50.918;5.338;2024-03-29T02:13:01;11.70;99.90
40828;DHT22;26549;50.918;5.338;2024-03-29T02:15:31;11.70;99.90
40828;DHT22;26549;50.918;5.338;2024-03-29T02:18:00;11.70;99.90
40828;DHT22;26549;50.918;5.338;2024-03-29T02:20:32;11.70;99.90
40828;DHT22;26549;50.918;5.338;2024-03-29T02:25:28;11.70;99.90
40828;DHT22;26549;50.918;5.338;2024-03-29T02:27:54;11.60;99.90
40828;DHT22;26549;50.918;5.338;2024-03-29T02:30:20;11.60;99.90
40828;DHT22;26549;50.918;5.338;2024-03-29T02:32:49;11.50;99.90
40828;DHT22;26549;50.918;5.338;2024-03-29T02:35:15;11.60;99.90
40828;DHT22;26549;50.918;5.338;2024-03-29T02:37:41;11.50;99.90
40828;DHT22;26549;50.918;5.338;2024-03-29T02:40:09;11.40;99.90
40828;DHT22;26549;50.918;5.338;2024-03-29T02:42:36;11.30;99.90
40828;DHT22;26549;50.918;5.338;2024-03-29T02:45:05;11.20;99.90
40828;DHT22;26549;50.918;5.338;2024-03-29T02:47:31;11.10;99.90
40828;DHT22;26549;50.918;5.338;2024-03-29T02:49:57;11.00;99.90
40828;DHT22;26549;50.918;5.338;2024-03-29T02:52:24;10.90;99.90
40828;DHT22;26549;50.918;5.338;2024-03-29T02:54:51;10.90;99.90
40828;DHT22;26549;50.918;5.338;2024-03-29T02:57:19;10.80;99.90
40828;DHT22;26549;50.918;5.338;2024-03-29T02:59:45;10.60;99.90
40828;DHT22;26549;50.918;5.338;2024-03-29T03:02:14;10.50;99.90
40828;DHT22;26549;50.918;5.338;2024-03-29T03:04:40;10.40;99.90
40828;DHT22;26549;50.918;5.338;2024-03-29T03:07:07;10.30;99.90
40828;DHT22;26549;50.918;5.338;2024-03-29T03:09:51;10.20;99.90
40828;DHT22;26549;50.918;5.338;2024-03-29T03:12:37;10.10;99.90
40828;DHT22;26549;50.918;5.338;2024-03-29T03:15:05;10.20;99.90
40828;DHT22;26549;50.918;5.338;2024-03-29T03:17:34;10.20;99.90
40828;DHT22;26549;50.918;5.338;2024-03-29T03:20:01;10.20;99.90
40828;DHT22;26549;50.918;5.338;2024-03-29T03:22:30;10.20;99.90
40828;DHT22;26549;50.918;5.338;2024-03-29T03:24:57;10.20;99.90
40828;DHT22;26549;50.918;5.338;2024-03-29T03:27:29;10.20;99.90
40828;DHT22;26549;50.918;5.338;2024-03-29T03:29:55;10.20;99.90
40828;DHT22;26549;50.918;5.338;2024-03-29T03:32:24;10.10;99.90
40828;DHT22;26549;50.918;5.338;2024-03-29T03:34:50;10.00;99.90
40828;DHT22;26549;50.918;5.338;2024-03-29T03:37:17;10.00;99.90
40828;DHT22;26549;50.918;5.338;2024-03-29T03:39:44;10.00;99.90
40828;DHT22;26549;50.918;5.338;2024-03-29T03:42:10;10.00;99.90
40828;DHT22;26549;50.918;5.338;2024-03-29T03:44:37;10.10;99.90
40828;DHT22;26549;50.918;5.338;2024-03-29T03:47:03;10.10;99.90
40828;DHT22;26549;50.918;5.338;2024-03-29T03:49:29;10.20;99.90
40828;DHT22;26549;50.918;5.338;2024-03-29T03:51:56;10.20;99.90
40828;DHT22;26549;50.918;5.338;2024-03-29T03:54:21;10.20;99.90
40828;DHT22;26549;50.918;5.338;2024-03-29T03:56:47;10.30;99.90
40828;DHT22;26549;50.918;5.338;2024-03-29T03:59:14;10.30;99.90
40828;DHT22;26549;50.918;5.338;2024-03-29T04:01:41;10.40;99.90
40828;DHT22;26549;50.918;5.338;2024-03-29T04:04:10;10.30;99.90
40828;DHT22;26549;50.918;5.338;2024-03-29T04:06:36;10.30;99.90
40828;DHT22;26549;50.918;5.338;2024-03-29T04:09:01;10.30;99.90
40828;DHT22;26549;50.918;5.338;2024-03-29T04:11:28;10.40;99.90
40828;DHT22;26549;50.918;5.338;2024-03-29T04:13:54;10.30;99.90
40828;DHT22;26549;50.918;5.338;2024-03-29T04:16:20;10.20;99.90
40828;DHT22;26549;50.918;5.338;2024-03-29T04:18:46;10.20;99.90
40828;DHT22;26549;50.918;5.338;2024-03-29T04:21:13;10.20;99.90
40828;DHT22;26549;50.918;5.338;2024-03-29T04:23:39;10.20;99.90
40828;DHT22;26549;50.918;5.338;2024-03-29T04:26:06;10.20;99.90
40828;DHT22;26549;50.918;5.338;2024-03-29T04:28:33;10.20;99.90
40828;DHT22;26549;50.918;5.338;2024-03-29T04:31:00;10.30;99.90
40828;DHT22;26549;50.918;5.338;2024-03-29T04:33:28;10.30;99.90
40828;DHT22;26549;50.918;5.338;2024-03-29T04:35:59;10.20;99.90
40828;DHT22;26549;50.918;5.338;2024-03-29T04:38:27;10.20;99.90
40828;DHT22;26549;50.918;5.338;2024-03-29T04:40:54;10.30;99.90
40828;DHT22;26549;50.918;5.338;2024-03-29T04:43:23;10.40;99.90
40828;DHT22;26549;50.918;5.338;2024-03-29T04:46:00;10.40;99.90
40828;DHT22;26549;50.918;5.338;2024-03-29T04:48:26;10.40;99.90
40828;DHT22;26549;50.918;5.338;2024-03-29T04:50:54;10.20;99.90
40828;DHT22;26549;50.918;5.338;2024-03-29T04:53:22;10.10;99.90
40828;DHT22;26549;50.918;5.338;2024-03-29T04:55:58;10.10;99.90
40828;DHT22;26549;50.918;5.338;2024-03-29T04:58:25;10.00;99.90
40828;DHT22;26549;50.918;5.338;2024-03-29T05:00:54;10.00;99.90
40828;DHT22;26549;50.918;5.338;2024-03-29T05:03:21;9.90;99.90
40828;DHT22;26549;50.918;5.338;2024-03-29T05:05:48;10.00;99.90
40828;DHT22;26549;50.918;5.338;2024-03-29T05:08:15;9.90;99.90
40828;DHT22;26549;50.918;5.338;2024-03-29T05:10:43;9.70;99.90
40828;DHT22;26549;50.918;5.338;2024-03-29T05:13:10;9.70;99.90
40828;DHT22;26549;50.918;5.338;2024-03-29T05:15:36;9.50;99.90
40828;DHT22;26549;50.918;5.338;2024-03-29T05:18:02;9.60;99.90
40828;DHT22;26549;50.918;5.338;2024-03-29T05:20:29;9.60;99.90
40828;DHT22;26549;50.918;5.338;2024-03-29T05:22:57;9.60;99.90
40828;DHT22;26549;50.918;5.338;2024-03-29T05:25:24;9.60;99.90
40828;DHT22;26549;50.918;5.338;2024-03-29T05:27:50;9.70;99.90
40828;DHT22;26549;50.918;5.338;2024-03-29T05:30:18;9.60;99.90
40828;DHT22;26549;50.918;5.338;2024-03-29T05:32:47;9.70;99.90
40828;DHT22;26549;50.918;5.338;2024-03-29T05:35:13;9.60;99.90
40828;DHT22;26549;50.918;5.338;2024-03-29T05:37:41;9.60;99.90
40828;DHT22;26549;50.918;5.338;2024-03-29T05:40:08;9.50;99.90
40828;DHT22;26549;50.918;5.338;2024-03-29T05:42:35;9.50;99.90
40828;DHT22;26549;50.918;5.338;2024-03-29T05:45:04;9.70;99.90
40828;DHT22;26549;50.918;5.338;2024-03-29T05:47:31;9.60;99.90
40828;DHT22;26549;50.918;5.338;2024-03-29T05:49:57;9.70;99.90
40828;DHT22;26549;50.918;5.338;2024-03-29T05:52:23;9.80;99.90
40828;DHT22;26549;50.918;5.338;2024-03-29T05:54:49;9.80;99.90
40828;DHT22;26549;50.918;5.338;2024-03-29T05:57:17;9.60;99.90
40828;DHT22;26549;50.918;5.338;2024-03-29T05:59:44;9.60;99.90
40828;DHT22;26549;50.918;5.338;2024-03-29T06:02:11;9.70;99.90
40828;DHT22;26549;50.918;5.338;2024-03-29T06:04:39;9.50;99.90
40828;DHT22;26549;50.918;5.338;2024-03-29T06:07:05;9.50;99.90
40828;DHT22;26549;50.918;5.338;2024-03-29T06:09:31;9.40;99.90
40828;DHT22;26549;50.918;5.338;2024-03-29T06:11:59;9.40;99.90
40828;DHT22;26549;50.918;5.338;2024-03-29T06:14:25;9.40;99.90
40828;DHT22;26549;50.918;5.338;2024-03-29T06:17:10;9.50;99.90
40828;DHT22;26549;50.918;5.338;2024-03-29T06:19:49;9.70;99.90
40828;DHT22;26549;50.918;5.338;2024-03-29T06:22:16;9.60;99.90
40828;DHT22;26549;50.918;5.338;2024-03-29T06:24:43;9.60;99.90
40828;DHT22;26549;50.918;5.338;2024-03-29T06:27:10;9.50;99.90
40828;DHT22;26549;50.918;5.338;2024-03-29T06:29:36;9.60;99.90
40828;DHT22;26549;50.918;5.338;2024-03-29T06:32:02;9.70;99.90
40828;DHT22;26549;50.918;5.338;2024-03-29T06:34:31;9.90;99.90
40828;DHT22;26549;50.918;5.338;2024-03-29T06:36:57;9.90;99.90
40828;DHT22;26549;50.918;5.338;2024-03-29T06:39:23;10.00;99.90
40828;DHT22;26549;50.918;5.338;2024-03-29T06:41:52;10.10;99.90
40828;DHT22;26549;50.918;5.338;2024-03-29T06:44:18;10.10;99.90
40828;DHT22;26549;50.918;5.338;2024-03-29T06:46:46;10.00;99.90
40828;DHT22;26549;50.918;5.338;2024-03-29T06:49:12;10.10;99.90
40828;DHT22;26549;50.918;5.338;2024-03-29T06:51:41;10.10;99.90
40828;DHT22;26549;50.918;5.338;2024-03-29T06:54:06;10.20;99.90
40828;DHT22;26549;50.918;5.338;2024-03-29T06:56:35;10.20;99.90
40828;DHT22;26549;50.918;5.338;2024-03-29T06:59:04;10.40;99.90
40828;DHT22;26549;50.918;5.338;2024-03-29T07:01:41;10.40;99.90
40828;DHT22;26549;50.918;5.338;2024-03-29T07:04:09;10.40;99.90
40828;DHT22;26549;50.918;5.338;2024-03-29T07:06:35;10.40;99.90
40828;DHT22;26549;50.918;5.338;2024-03-29T07:09:04;10.50;99.90
40828;DHT22;26549;50.918;5.338;2024-03-29T07:11:31;10.60;99.90
40828;DHT22;26549;50.918;5.338;2024-03-29T07:13:57;10.70;99.90
40828;DHT22;26549;50.918;5.338;2024-03-29T07:16:23;10.60;99.90
40828;DHT22;26549;50.918;5.338;2024-03-29T07:18:49;10.60;99.90
40828;DHT22;26549;50.918;5.338;2024-03-29T07:21:19;10.60;99.90
40828;DHT22;26549;50.918;5.338;2024-03-29T07:23:44;10.70;99.90
40828;DHT22;26549;50.918;5.338;2024-03-29T07:26:11;10.70;99.90
40828;DHT22;26549;50.918;5.338;2024-03-29T07:28:43;10.70;99.90
40828;DHT22;26549;50.918;5.338;2024-03-29T07:31:12;10.70;99.90
40828;DHT22;26549;50.918;5.338;2024-03-29T07:33:37;10.70;99.90
40828;DHT22;26549;50.918;5.338;2024-03-29T07:36:04;10.80;99.90
40828;DHT22;26549;50.918;5.338;2024-03-29T07:38:36;10.80;99.90
40828;DHT22;26549;50.918;5.338;2024-03-29T07:41:02;10.90;99.90
40828;DHT22;26549;50.918;5.338;2024-03-29T07:43:39;11.00;99.90
40828;DHT22;26549;50.918;5.338;2024-03-29T07:46:09;11.10;99.90
40828;DHT22;26549;50.918;5.338;2024-03-29T07:48:35;11.20;99.90
40828;DHT22;26549;50.918;5.338;2024-03-29T07:51:01;11.30;99.90
40828;DHT22;26549;50.918;5.338;2024-03-29T07:53:27;11.40;99.90
40828;DHT22;26549;50.918;5.338;2024-03-29T07:55:53;11.40;99.90
40828;DHT22;26549;50.918;5.338;2024-03-29T07:58:20;11.50;99.90
40828;DHT22;26549;50.918;5.338;2024-03-29T08:00:46;11.70;99.90
40828;DHT22;26549;50.918;5.338;2024-03-29T08:03:12;11.80;99.90
40828;DHT22;26549;50.918;5.338;2024-03-29T08:05:37;11.80;99.90
40828;DHT22;26549;50.918;5.338;2024-03-29T08:08:03;11.90;99.90
40828;DHT22;26549;50.918;5.338;2024-03-29T08:10:29;12.00;99.90
40828;DHT22;26549;50.918;5.338;2024-03-29T08:12:55;12.00;99.90
40828;DHT22;26549;50.918;5.338;2024-03-29T08:15:21;12.00;99.90
40828;DHT22;26549;50.918;5.338;2024-03-29T08:17:47;12.20;99.90
40828;DHT22;26549;50.918;5.338;2024-03-29T08:20:14;12.20;99.90
40828;DHT22;26549;50.918;5.338;2024-03-29T08:22:42;12.30;99.90
40828;DHT22;26549;50.918;5.338;2024-03-29T08:25:08;12.40;99.90
40828;DHT22;26549;50.918;5.338;2024-03-29T08:27:34;12.50;99.90
40828;DHT22;26549;50.918;5.338;2024-03-29T08:30:00;12.70;99.90
40828;DHT22;26549;50.918;5.338;2024-03-29T08:32:26;12.80;99.90
40828;DHT22;26549;50.918;5.338;2024-03-29T08:34:52;12.90;99.90
40828;DHT22;26549;50.918;5.338;2024-03-29T08:37:21;13.10;99.90
40828;DHT22;26549;50.918;5.338;2024-03-29T08:39:47;13.30;99.90
40828;DHT22;26549;50.918;5.338;2024-03-29T08:42:13;13.50;99.90
40828;DHT22;26549;50.918;5.338;2024-03-29T08:44:39;13.50;99.90
40828;DHT22;26549;50.918;5.338;2024-03-29T08:47:06;13.60;99.90
40828;DHT22;26549;50.918;5.338;2024-03-29T08:49:32;13.50;99.90
40828;DHT22;26549;50.918;5.338;2024-03-29T08:51:58;13.70;99.90
40828;DHT22;26549;50.918;5.338;2024-03-29T08:54:26;13.60;99.90
40828;DHT22;26549;50.918;5.338;2024-03-29T08:56:53;13.50;99.90
40828;DHT22;26549;50.918;5.338;2024-03-29T08:59:19;13.50;99.90
40828;DHT22;26549;50.918;5.338;2024-03-29T09:01:46;13.50;99.90
40828;DHT22;26549;50.918;5.338;2024-03-29T09:04:15;13.60;99.90
40828;DHT22;26549;50.918;5.338;2024-03-29T09:06:42;13.40;99.90
40828;DHT22;26549;50.918;5.338;2024-03-29T09:09:08;13.20;99.90
40828;DHT22;26549;50.918;5.338;2024-03-29T09:11:37;13.30;99.90
40828;DHT22;26549;50.918;5.338;2024-03-29T09:14:06;13.40;99.90
40828;DHT22;26549;50.918;5.338;2024-03-29T09:16:35;13.50;99.90
40828;DHT22;26549;50.918;5.338;2024-03-29T09:19:01;13.50;99.90
40828;DHT22;26549;50.918;5.338;2024-03-29T09:21:26;13.50;99.90
40828;DHT22;26549;50.918;5.338;2024-03-29T09:23:52;13.60;99.90
40828;DHT22;26549;50.918;5.338;2024-03-29T09:26:19;13.70;99.90
40828;DHT22;26549;50.918;5.338;2024-03-29T09:28:45;13.80;99.90
40828;DHT22;26549;50.918;5.338;2024-03-29T09:31:11;13.80;99.90
40828;DHT22;26549;50.918;5.338;2024-03-29T09:33:37;13.80;99.90
40828;DHT22;26549;50.918;5.338;2024-03-29T09:36:03;13.60;99.90
40828;DHT22;26549;50.918;5.338;2024-03-29T09:38:29;13.60;99.90
40828;DHT22;26549;50.918;5.338;2024-03-29T09:41:15;13.60;99.90
40828;DHT22;26549;50.918;5.338;2024-03-29T09:43:42;13.60;99.90
40828;DHT22;26549;50.918;5.338;2024-03-29T09:46:10;13.80;99.90
40828;DHT22;26549;50.918;5.338;2024-03-29T09:48:37;13.80;99.90
40828;DHT22;26549;50.918;5.338;2024-03-29T09:51:08;13.90;99.90
40828;DHT22;26549;50.918;5.338;2024-03-29T09:53:35;13.90;99.90
40828;DHT22;26549;50.918;5.338;2024-03-29T09:56:05;13.80;99.90
40828;DHT22;26549;50.918;5.338;2024-03-29T09:58:35;13.90;99.90
40828;DHT22;26549;50.918;5.338;2024-03-29T10:01:07;14.00;99.90
40828;DHT22;26549;50.918;5.338;2024-03-29T10:03:40;13.90;99.90
40828;DHT22;26549;50.918;5.338;2024-03-29T10:06:06;14.00;99.90
40828;DHT22;26549;50.918;5.338;2024-03-29T10:08:37;14.00;99.90
40828;DHT22;26549;50.918;5.338;2024-03-29T10:11:06;14.10;99.90
40828;DHT22;26549;50.918;5.338;2024-03-29T10:13:34;14.00;99.90
40828;DHT22;26549;50.918;5.338;2024-03-29T10:16:01;13.90;99.90
40828;DHT22;26549;50.918;5.338;2024-03-29T10:18:34;14.30;99.90
40828;DHT22;26549;50.918;5.338;2024-03-29T10:21:01;14.40;99.90
40828;DHT22;26549;50.918;5.338;2024-03-29T10:23:29;14.60;99.90
40828;DHT22;26549;50.918;5.338;2024-03-29T10:25:56;14.70;99.90
40828;DHT22;26549;50.918;5.338;2024-03-29T10:28:32;14.90;99.90
40828;DHT22;26549;50.918;5.338;2024-03-29T10:30:59;15.00;99.90
40828;DHT22;26549;50.918;5.338;2024-03-29T10:33:31;15.00;99.90
40828;DHT22;26549;50.918;5.338;2024-03-29T10:35:59;15.00;99.90
40828;DHT22;26549;50.918;5.338;2024-03-29T10:38:30;15.10;99.90
40828;DHT22;26549;50.918;5.338;2024-03-29T10:40:59;15.10;99.90
40828;DHT22;26549;50.918;5.338;2024-03-29T10:43:31;15.20;99.90
40828;DHT22;26549;50.918;5.338;2024-03-29T10:46:00;15.20;99.90
40828;DHT22;26549;50.918;5.338;2024-03-29T10:48:27;15.20;99.90
40828;DHT22;26549;50.918;5.338;2024-03-29T10:50:58;15.10;99.90
40828;DHT22;26549;50.918;5.338;2024-03-29T10:53:26;15.20;99.90
40828;DHT22;26549;50.918;5.338;2024-03-29T10:55:58;15.10;99.90
40828;DHT22;26549;50.918;5.338;2024-03-29T10:58:45;15.10;99.90
40828;DHT22;26549;50.918;5.338;2024-03-29T11:01:15;15.10;99.90
40828;DHT22;26549;50.918;5.338;2024-03-29T11:03:44;15.20;99.90
40828;DHT22;26549;50.918;5.338;2024-03-29T11:06:15;15.30;99.90
40828;DHT22;26549;50.918;5.338;2024-03-29T11:08:43;15.30;99.90
40828;DHT22;26549;50.918;5.338;2024-03-29T11:11:13;15.60;99.90
40828;DHT22;26549;50.918;5.338;2024-03-29T11:13:58;15.80;99.90
40828;DHT22;26549;50.918;5.338;2024-03-29T11:16:28;15.70;99.90
40828;DHT22;26549;50.918;5.338;2024-03-29T11:18:54;15.60;99.90
40828;DHT22;26549;50.918;5.338;2024-03-29T11:21:21;15.50;99.90
40828;DHT22;26549;50.918;5.338;2024-03-29T11:23:50;15.30;99.90
40828;DHT22;26549;50.918;5.338;2024-03-29T11:26:29;15.30;99.90
40828;DHT22;26549;50.918;5.338;2024-03-29T11:29:24;15.30;99.90
40828;DHT22;26549;50.918;5.338;2024-03-29T11:32:02;15.30;99.90
40828;DHT22;26549;50.918;5.338;2024-03-29T11:34:34;15.30;99.90
40828;DHT22;26549;50.918;5.338;2024-03-29T11:37:12;15.30;99.90
40828;DHT22;26549;50.918;5.338;2024-03-29T11:39:47;15.20;99.90
40828;DHT22;26549;50.918;5.338;2024-03-29T11:42:13;15.20;99.90
40828;DHT22;26549;50.918;5.338;2024-03-29T11:44:39;15.50;99.90
40828;DHT22;26549;50.918;5.338;2024-03-29T11:47:06;15.60;99.90
40828;DHT22;26549;50.918;5.338;2024-03-29T11:49:33;15.60;99.90
40828;DHT22;26549;50.918;5.338;2024-03-29T11:52:05;15.70;99.90
40828;DHT22;26549;50.918;5.338;2024-03-29T11:54:40;15.70;99.90
40828;DHT22;26549;50.918;5.338;2024-03-29T11:57:07;15.70;99.90
40828;DHT22;26549;50.918;5.338;2024-03-29T11:59:35;15.70;99.90
40828;DHT22;26549;50.918;5.338;2024-03-29T12:02:02;15.60;99.90
40828;DHT22;26549;50.918;5.338;2024-03-29T12:04:36;15.70;99.90
40828;DHT22;26549;50.918;5.338;2024-03-29T12:07:08;15.70;99.90
40828;DHT22;26549;50.918;5.338;2024-03-29T12:09:35;15.70;99.90
40828;DHT22;26549;50.918;5.338;2024-03-29T12:12:05;15.70;99.90
40828;DHT22;26549;50.918;5.338;2024-03-29T12:14:32;15.70;99.90
40828;DHT22;26549;50.918;5.338;2024-03-29T12:17:10;15.60;99.90
40828;DHT22;26549;50.918;5.338;2024-03-29T12:19:41;15.70;99.90
40828;DHT22;26549;50.918;5.338;2024-03-29T12:22:08;15.80;99.90
40828;DHT22;26549;50.918;5.338;2024-03-29T12:24:35;15.90;99.90
40828;DHT22;26549;50.918;5.338;2024-03-29T12:27:01;15.90;99.90
40828;DHT22;26549;50.918;5.338;2024-03-29T12:29:27;15.90;99.90
40828;DHT22;26549;50.918;5.338;2024-03-29T12:32:00;16.00;99.90
40828;DHT22;26549;50.918;5.338;2024-03-29T12:34:26;16.00;99.90
40828;DHT22;26549;50.918;5.338;2024-03-29T12:36:51;15.80;99.90
40828;DHT22;26549;50.918;5.338;2024-03-29T12:39:17;15.80;99.90
40828;DHT22;26549;50.918;5.338;2024-03-29T12:41:46;15.80;99.90
40828;DHT22;26549;50.918;5.338;2024-03-29T12:44:12;16.00;99.90
40828;DHT22;26549;50.918;5.338;2024-03-29T12:46:39;16.10;99.90
40828;DHT22;26549;50.918;5.338;2024-03-29T12:49:05;16.20;99.90
40828;DHT22;26549;50.918;5.338;2024-03-29T12:51:31;16.20;99.90
40828;DHT22;26549;50.918;5.338;2024-03-29T12:54:05;16.10;99.90
40828;DHT22;26549;50.918;5.338;2024-03-29T12:56:31;16.10;99.90
40828;DHT22;26549;50.918;5.338;2024-03-29T12:58:58;16.30;99.90
40828;DHT22;26549;50.918;5.338;2024-03-29T13:01:24;16.40;99.90
40828;DHT22;26549;50.918;5.338;2024-03-29T13:03:50;16.60;99.90
40828;DHT22;26549;50.918;5.338;2024-03-29T13:06:15;16.40;99.90
40828;DHT22;26549;50.918;5.338;2024-03-29T13:08:41;16.50;99.90
40828;DHT22;26549;50.918;5.338;2024-03-29T13:11:07;16.60;99.90
40828;DHT22;26549;50.918;5.338;2024-03-29T13:13:33;16.60;99.90
40828;DHT22;26549;50.918;5.338;2024-03-29T13:15:59;16.60;99.90
40828;DHT22;26549;50.918;5.338;2024-03-29T13:18:25;16.60;99.90
40828;DHT22;26549;50.918;5.338;2024-03-29T13:20:51;16.70;99.90
40828;DHT22;26549;50.918;5.338;2024-03-29T13:23:17;16.70;99.90
40828;DHT22;26549;50.918;5.338;2024-03-29T13:25:43;16.70;99.90
40828;DHT22;26549;50.918;5.338;2024-03-29T13:28:08;16.70;99.90
40828;DHT22;26549;50.918;5.338;2024-03-29T13:30:36;16.70;99.90
40828;DHT22;26549;50.918;5.338;2024-03-29T13:33:08;16.80;99.90
40828;DHT22;26549;50.918;5.338;2024-03-29T13:35:36;17.10;99.90
40828;DHT22;26549;50.918;5.338;2024-03-29T13:38:02;17.30;99.90
40828;DHT22;26549;50.918;5.338;2024-03-29T13:40:28;17.30;99.90
40828;DHT22;26549;50.918;5.338;2024-03-29T13:42:54;17.20;99.90
40828;DHT22;26549;50.918;5.338;2024-03-29T13:45:20;17.00;99.90
40828;DHT22;26549;50.918;5.338;2024-03-29T13:47:46;16.90;99.90
40828;DHT22;26549;50.918;5.338;2024-03-29T13:50:13;16.90;99.90
40828;DHT22;26549;50.918;5.338;2024-03-29T13:52:41;17.10;99.90
40828;DHT22;26549;50.918;5.338;2024-03-29T13:55:07;17.20;99.90
40828;DHT22;26549;50.918;5.338;2024-03-29T13:57:34;17.20;99.90
40828;DHT22;26549;50.918;5.338;2024-03-29T14:00:00;17.20;99.90
40828;DHT22;26549;50.918;5.338;2024-03-29T14:02:26;17.10;99.90
40828;DHT22;26549;50.918;5.338;2024-03-29T14:04:56;17.10;99.90
40828;DHT22;26549;50.918;5.338;2024-03-29T14:07:23;17.00;99.90
40828;DHT22;26549;50.918;5.338;2024-03-29T14:09:52;17.20;99.90
40828;DHT22;26549;50.918;5.338;2024-03-29T14:12:18;17.20;99.90
40828;DHT22;26549;50.918;5.338;2024-03-29T14:14:49;17.20;99.90
40828;DHT22;26549;50.918;5.338;2024-03-29T14:17:17;17.30;99.90
40828;DHT22;26549;50.918;5.338;2024-03-29T14:19:43;17.40;99.90
40828;DHT22;26549;50.918;5.338;2024-03-29T14:22:10;17.30;99.90
40828;DHT22;26549;50.918;5.338;2024-03-29T14:24:37;17.30;99.90
40828;DHT22;26549;50.918;5.338;2024-03-29T14:27:05;17.40;99.90
40828;DHT22;26549;50.918;5.338;2024-03-29T14:29:34;17.40;99.90
40828;DHT22;26549;50.918;5.338;2024-03-29T14:32:01;17.30;99.90
40828;DHT22;26549;50.918;5.338;2024-03-29T14:34:27;17.20;99.90
40828;DHT22;26549;50.918;5.338;2024-03-29T14:36:53;17.10;99.90
40828;DHT22;26549;50.918;5.338;2024-03-29T14:39:19;17.00;99.90
40828;DHT22;26549;50.918;5.338;2024-03-29T14:41:47;17.10;99.90
40828;DHT22;26549;50.918;5.338;2024-03-29T14:44:15;17.20;99.90
40828;DHT22;26549;50.918;5.338;2024-03-29T14:46:41;17.30;99.90
40828;DHT22;26549;50.918;5.338;2024-03-29T14:49:07;17.10;99.90
40828;DHT22;26549;50.918;5.338;2024-03-29T14:51:36;16.90;99.90
40828;DHT22;26549;50.918;5.338;2024-03-29T14:54:02;16.80;99.90
40828;DHT22;26549;50.918;5.338;2024-03-29T14:56:30;16.80;99.90
40828;DHT22;26549;50.918;5.338;2024-03-29T14:59:04;16.70;99.90
40828;DHT22;26549;50.918;5.338;2024-03-29T15:01:31;16.70;99.90
40828;DHT22;26549;50.918;5.338;2024-03-29T15:03:57;16.80;99.90
40828;DHT22;26549;50.918;5.338;2024-03-29T15:06:23;16.80;99.90
40828;DHT22;26549;50.918;5.338;2024-03-29T15:08:52;17.00;99.90
40828;DHT22;26549;50.918;5.338;2024-03-29T15:11:18;17.20;99.90
40828;DHT22;26549;50.918;5.338;2024-03-29T15:13:44;17.10;99.90
40828;DHT22;26549;50.918;5.338;2024-03-29T15:16:10;17.10;99.90
40828;DHT22;26549;50.918;5.338;2024-03-29T15:18:36;17.10;99.90
40828;DHT22;26549;50.918;5.338;2024-03-29T15:21:02;17.00;99.90
40828;DHT22;26549;50.918;5.338;2024-03-29T15:23:30;16.80;99.90
40828;DHT22;26549;50.918;5.338;2024-03-29T15:25:57;17.00;99.90
40828;DHT22;26549;50.918;5.338;2024-03-29T15:28:27;16.80;99.90
40828;DHT22;26549;50.918;5.338;2024-03-29T15:31:17;16.80;99.90
40828;DHT22;26549;50.918;5.338;2024-03-29T15:33:46;16.90;99.90
40828;DHT22;26549;50.918;5.338;2024-03-29T15:36:13;16.80;99.90
40828;DHT22;26549;50.918;5.338;2024-03-29T15:38:39;16.80;99.90